< < Back
Terminal Aerodrome Forecast


Current Version              Previous Versions:   1  2  3  4  5  6  7  8  9  

Terminal Aerodrome Forecast

392
FTUS44 KBMX 281100
TAFMGM
TAF
KMGM 281135Z 2812/2912 23006KT P6SM SCT250
     FM281400 27010KT P6SM VCSH SCT035 BKN070
     FM281700 29012G18KT 3SM SHRA VCTS BKN035CB BKN070
     FM282100 29012G18KT P6SM SCT050
     FM290200 31005KT P6SM SKC=



Latest METAR

942
SAUS80 KWBC 290400 RRB
MTRMGM
METAR KMGM 290353Z 34008KT 10SM CLR 27/17 A2998 RMK AO2 SLP147
T02670172


USA.gov is the U.S. government's official web portal to all federal, state and local government web resources and services.